Time;durP1;ratioP1;P1;durP2;ratioP2;P2;SDS_P1;SDS_P2;PMS_P1;PMS_P2;Temp;Humidity;BMP_temperature;BMP_pressure;BME280_temperature;BME280_humidity;BME280_pressure;Samples;Min_cycle;Max_cycle;Signal;HPM_P1;HPM_P2
2023/04/12 00:00:53;;;;;;;7.20;2.20;;;10.10;99.90;;;;;;5061955;28;20267;-60
2023/04/12 00:03:20;;;;;;;4.07;1.83;;;10.20;99.90;;;;;;5062033;28;20236;-60
2023/04/12 00:05:53;;;;;;;7.97;2.10;;;10.30;99.90;;;;;;5061470;28;20225;-60
2023/04/12 00:08:23;;;;;;;5.80;2.07;;;10.40;99.90;;;;;;5061866;28;20220;-59
2023/04/12 00:10:51;;;;;;;4.77;2.00;;;10.50;99.90;;;;;;5060677;28;20221;-59
2023/04/12 00:13:19;;;;;;;7.80;2.10;;;10.60;99.90;;;;;;5061244;28;20674;-60
2023/04/12 00:15:46;;;;;;;5.93;2.00;;;10.70;99.90;;;;;;5060683;28;20262;-60
2023/04/12 00:18:13;;;;;;;5.27;2.20;;;10.80;99.90;;;;;;5060883;28;20206;-60
2023/04/12 00:20:40;;;;;;;4.33;1.90;;;10.80;99.90;;;;;;5060537;28;20225;-60
2023/04/12 00:23:08;;;;;;;3.93;1.70;;;10.80;99.90;;;;;;5059428;28;20636;-59
2023/04/12 00:25:37;;;;;;;4.27;1.70;;;10.90;99.90;;;;;;5060624;28;20221;-60
2023/04/12 00:28:06;;;;;;;4.03;1.77;;;11.00;99.30;;;;;;5060246;28;20582;-59
2023/04/12 00:30:33;;;;;;;3.03;1.50;;;11.20;99.50;;;;;;5059212;28;20259;-60
2023/04/12 00:32:59;;;;;;;3.17;1.30;;;11.40;99.70;;;;;;5059323;28;20209;-61
2023/04/12 00:35:26;;;;;;;3.53;1.40;;;11.50;99.90;;;;;;5059932;28;20222;-60
2023/04/12 00:37:53;;;;;;;3.40;1.53;;;11.60;99.90;;;;;;5060204;28;20212;-60
2023/04/12 00:40:21;;;;;;;5.47;1.80;;;11.70;99.90;;;;;;5059260;28;20221;-62
2023/04/12 00:42:47;;;;;;;4.40;1.50;;;11.80;99.90;;;;;;5059638;28;20287;-60
2023/04/12 00:45:16;;;;;;;8.73;1.70;;;11.80;99.90;;;;;;5059751;28;20311;-60
2023/04/12 00:47:43;;;;;;;6.70;1.97;;;11.80;99.90;;;;;;5061155;28;20215;-59
2023/04/12 00:50:11;;;;;;;5.07;1.70;;;11.80;99.90;;;;;;5058775;28;20257;-59
2023/04/12 00:52:40;;;;;;;4.43;2.20;;;11.80;99.90;;;;;;5059411;28;20630;-60
2023/04/12 00:55:09;;;;;;;4.07;1.60;;;11.70;99.90;;;;;;5059444;28;20202;-60
2023/04/12 00:57:38;;;;;;;8.10;1.80;;;11.80;99.90;;;;;;5058860;28;20273;-61
2023/04/12 01:00:09;;;;;;;4.10;1.33;;;11.80;99.90;;;;;;5059355;28;20374;-60
2023/04/12 01:02:38;;;;;;;5.07;1.83;;;11.80;99.90;;;;;;5059521;28;20205;-60
2023/04/12 01:05:07;;;;;;;2.93;1.30;;;11.80;99.90;;;;;;5062290;28;20209;-60
2023/04/12 01:07:45;;;;;;;4.37;1.80;;;11.80;99.90;;;;;;5061422;28;20205;-60
2023/04/12 01:10:19;;;;;;;6.73;1.93;;;11.90;99.90;;;;;;5058718;28;20252;-60
2023/04/12 01:12:56;;;;;;;3.73;1.97;;;11.80;99.90;;;;;;5058869;28;20211;-59
2023/04/12 01:15:25;;;;;;;5.30;1.90;;;11.70;99.90;;;;;;5058949;28;20197;-60
2023/04/12 01:18:01;;;;;;;3.07;1.80;;;11.70;99.90;;;;;;5059022;28;20248;-61
2023/04/12 01:20:35;;;;;;;3.83;2.17;;;11.70;99.90;;;;;;5059245;28;20225;-59
2023/04/12 01:23:28;;;;;;;4.80;1.73;;;11.70;99.90;;;;;;5057973;28;20696;-60
2023/04/12 01:26:16;;;;;;;7.10;2.20;;;11.60;99.90;;;;;;5059418;28;20623;-62
2023/04/12 01:28:46;;;;;;;4.30;1.90;;;11.60;99.90;;;;;;5059403;28;20206;-62
2023/04/12 01:31:14;;;;;;;4.90;1.73;;;11.60;99.90;;;;;;5058313;28;20206;-60
2023/04/12 01:33:45;;;;;;;5.10;2.10;;;11.60;99.90;;;;;;5059531;28;20213;-59
2023/04/12 01:36:15;;;;;;;6.13;2.30;;;11.50;99.90;;;;;;5058692;28;20689;-60
2023/04/12 01:38:43;;;;;;;4.97;1.90;;;11.40;99.90;;;;;;5058670;28;20296;-60
2023/04/12 01:41:11;;;;;;;4.50;2.03;;;11.40;99.90;;;;;;5058460;28;20209;-60
2023/04/12 01:43:41;;;;;;;4.50;2.03;;;11.40;99.90;;;;;;5058707;28;20356;-59
2023/04/12 01:46:10;;;;;;;4.53;2.00;;;11.30;99.90;;;;;;5058537;28;20213;-60
2023/04/12 01:48:38;;;;;;;3.07;2.30;;;11.30;99.90;;;;;;5059632;28;20251;-60
2023/04/12 01:51:08;;;;;;;7.57;1.90;;;11.30;99.90;;;;;;5059066;28;20293;-60
2023/04/12 01:53:49;;;;;;;5.63;2.67;;;11.30;99.90;;;;;;5058339;28;20209;-60
2023/04/12 01:56:18;;;;;;;3.57;1.83;;;11.30;99.90;;;;;;5058455;28;20205;-59
2023/04/12 01:58:47;;;;;;;4.60;2.00;;;11.30;99.90;;;;;;5058462;28;20229;-60
2023/04/12 02:01:17;;;;;;;5.80;2.20;;;11.30;99.90;;;;;;5058280;28;20666;-60
2023/04/12 02:03:48;;;;;;;3.90;1.90;;;11.30;99.90;;;;;;5058775;28;20222;-60
2023/04/12 02:06:18;;;;;;;5.03;2.00;;;11.30;99.90;;;;;;5057686;28;20204;-60
2023/04/12 02:08:46;;;;;;;5.53;2.20;;;11.20;99.90;;;;;;5057554;28;20287;-60
2023/04/12 02:11:14;;;;;;;6.83;2.07;;;11.10;99.90;;;;;;5057894;28;20206;-60
2023/04/12 02:13:41;;;;;;;6.77;2.00;;;11.10;99.90;;;;;;5057394;28;20205;-59
2023/04/12 02:16:09;;;;;;;7.37;2.67;;;11.10;99.90;;;;;;5057793;28;20296;-59
2023/04/12 02:18:40;;;;;;;6.10;2.03;;;11.00;99.90;;;;;;5057842;28;20211;-59
2023/04/12 02:21:08;;;;;;;4.50;2.03;;;11.00;99.90;;;;;;5058325;28;20618;-60
2023/04/12 02:23:34;;;;;;;3.70;1.80;;;11.00;99.90;;;;;;5058551;28;20270;-63
2023/04/12 02:26:02;;;;;;;4.20;1.97;;;10.90;99.90;;;;;;5058078;28;20244;-60
2023/04/12 02:28:29;;;;;;;4.83;1.80;;;10.70;99.90;;;;;;5057687;28;20214;-60
2023/04/12 02:30:57;;;;;;;3.23;1.97;;;10.70;99.90;;;;;;5057458;28;20255;-59
2023/04/12 02:33:26;;;;;;;4.73;1.80;;;10.60;99.90;;;;;;5058024;28;20205;-59
2023/04/12 02:35:58;;;;;;;4.30;1.67;;;10.60;99.90;;;;;;5058037;28;20213;-60
2023/04/12 02:38:25;;;;;;;2.90;1.77;;;10.60;99.90;;;;;;5057627;28;20206;-60
2023/04/12 02:40:52;;;;;;;3.83;1.70;;;10.70;99.90;;;;;;5057792;28;20210;-59
2023/04/12 02:43:19;;;;;;;5.13;1.90;;;10.60;99.90;;;;;;5056992;28;20232;-60
2023/04/12 02:45:47;;;;;;;4.90;1.83;;;10.60;99.90;;;;;;5057797;28;20201;-60
2023/04/12 02:48:14;;;;;;;3.87;1.67;;;10.50;99.90;;;;;;5057017;28;20285;-59
2023/04/12 02:50:41;;;;;;;2.40;1.60;;;10.40;99.90;;;;;;5057724;28;20217;-60
2023/04/12 02:53:09;;;;;;;6.57;2.10;;;10.50;99.90;;;;;;5057464;28;20209;-60
2023/04/12 02:55:37;;;;;;;5.57;1.70;;;10.40;99.90;;;;;;5056697;28;20212;-60
2023/04/12 02:58:04;;;;;;;2.70;1.60;;;10.40;99.90;;;;;;5056621;28;20300;-60
2023/04/12 03:00:31;;;;;;;3.50;1.63;;;10.40;99.90;;;;;;5055454;28;20609;-59
2023/04/12 03:03:00;;;;;;;3.03;1.50;;;10.50;99.90;;;;;;5056384;28;20205;-60
2023/04/12 03:05:27;;;;;;;4.77;1.80;;;10.50;99.90;;;;;;5056536;28;20762;-60
2023/04/12 03:07:55;;;;;;;3.00;1.27;;;10.50;99.90;;;;;;5056564;28;20213;-60
2023/04/12 03:10:23;;;;;;;3.73;1.40;;;10.50;99.90;;;;;;5056248;28;20288;-60
2023/04/12 03:12:50;;;;;;;3.53;1.53;;;10.60;99.90;;;;;;5056008;28;20197;-60
2023/04/12 03:15:17;;;;;;;3.30;1.60;;;10.60;99.90;;;;;;5056393;28;20205;-60
2023/04/12 03:17:44;;;;;;;3.43;1.63;;;10.70;99.90;;;;;;5056103;28;20205;-60
2023/04/12 03:20:12;;;;;;;4.60;1.70;;;10.70;99.90;;;;;;5056661;28;20260;-59
2023/04/12 03:22:39;;;;;;;4.67;1.50;;;10.70;99.90;;;;;;5056521;28;20205;-60
2023/04/12 03:25:07;;;;;;;6.77;1.63;;;10.70;99.90;;;;;;5055562;28;20271;-60
2023/04/12 03:27:35;;;;;;;3.77;1.83;;;10.50;99.90;;;;;;5056418;28;20237;-59
2023/04/12 03:30:02;;;;;;;3.43;2.07;;;10.40;99.90;;;;;;5056005;28;20241;-60
2023/04/12 03:32:29;;;;;;;6.17;1.93;;;10.40;99.90;;;;;;5056278;28;20464;-59
2023/04/12 03:34:56;;;;;;;4.67;2.97;;;10.40;99.90;;;;;;5054663;28;20201;-60
2023/04/12 03:37:23;;;;;;;2.57;2.10;;;10.20;99.90;;;;;;5056715;28;20209;-60
2023/04/12 03:39:50;;;;;;;3.03;1.90;;;10.10;99.90;;;;;;5056096;28;20312;-60
2023/04/12 03:42:17;;;;;;;5.97;2.03;;;10.00;99.90;;;;;;5056712;28;20201;-59
2023/04/12 03:44:47;;;;;;;4.43;1.73;;;9.80;99.90;;;;;;5056754;28;20247;-59
2023/04/12 03:47:14;;;;;;;4.87;1.93;;;9.50;99.90;;;;;;5057252;28;20209;-59
2023/04/12 03:49:41;;;;;;;4.07;1.90;;;9.20;99.90;;;;;;5056346;28;20312;-59
2023/04/12 03:52:08;;;;;;;4.60;1.80;;;9.10;99.90;;;;;;5056402;28;20216;-57
2023/04/12 03:54:35;;;;;;;3.20;1.60;;;8.90;99.90;;;;;;5056684;28;20206;-59
2023/04/12 03:57:02;;;;;;;6.33;2.10;;;8.70;99.90;;;;;;5056166;28;20844;-59
2023/04/12 03:59:29;;;;;;;3.97;1.90;;;8.50;99.90;;;;;;5055685;28;20229;-59
2023/04/12 04:01:58;;;;;;;4.30;1.70;;;8.60;99.90;;;;;;5055552;28;20288;-60
2023/04/12 04:04:25;;;;;;;5.30;2.37;;;8.50;99.90;;;;;;5055904;28;20268;-60
2023/04/12 04:06:52;;;;;;;3.87;2.20;;;8.40;99.90;;;;;;5055467;28;20720;-59
2023/04/12 04:09:19;;;;;;;3.67;2.13;;;8.40;99.90;;;;;;5055222;28;20260;-59
2023/04/12 04:11:46;;;;;;;4.20;2.00;;;8.50;99.90;;;;;;5056521;28;20209;-60
2023/04/12 04:14:13;;;;;;;4.53;2.10;;;8.70;99.90;;;;;;5057057;28;20662;-59
2023/04/12 04:16:40;;;;;;;5.20;2.27;;;8.80;99.90;;;;;;5056020;28;20670;-60
2023/04/12 04:19:09;;;;;;;3.20;1.70;;;8.80;99.90;;;;;;5055070;28;20229;-60
2023/04/12 04:21:39;;;;;;;5.57;2.27;;;8.80;99.90;;;;;;5057023;28;20584;-60
2023/04/12 04:24:10;;;;;;;3.17;1.80;;;8.90;99.90;;;;;;5055797;28;20278;-60
2023/04/12 04:26:37;;;;;;;4.50;1.97;;;9.00;99.90;;;;;;5056537;28;20201;-62
2023/04/12 04:29:04;;;;;;;4.87;2.20;;;9.00;99.90;;;;;;5056169;28;20728;-59
2023/04/12 04:31:33;;;;;;;3.27;2.10;;;9.00;99.90;;;;;;5056430;28;20308;-59
2023/04/12 04:34:02;;;;;;;4.60;1.90;;;9.00;99.90;;;;;;5056485;28;20212;-59
2023/04/12 04:36:31;;;;;;;4.50;2.10;;;9.00;99.90;;;;;;5055975;28;20205;-60
2023/04/12 04:38:58;;;;;;;3.60;1.90;;;8.90;99.90;;;;;;5059953;28;20231;-60
2023/04/12 04:41:25;;;;;;;3.30;1.70;;;8.80;99.90;;;;;;5059567;28;20206;-60
2023/04/12 04:43:53;;;;;;;4.67;1.93;;;8.80;99.90;;;;;;5059758;28;20205;-60
2023/04/12 04:46:20;;;;;;;3.97;1.70;;;8.70;99.90;;;;;;5059634;28;20205;-60
2023/04/12 04:48:48;;;;;;;4.80;2.03;;;8.70;99.90;;;;;;5060058;28;20705;-59
2023/04/12 04:51:15;;;;;;;4.87;2.20;;;8.80;99.90;;;;;;5060298;28;20216;-59
2023/04/12 04:53:44;;;;;;;4.97;2.30;;;8.80;99.90;;;;;;5059496;28;20220;-60
2023/04/12 04:56:11;;;;;;;6.10;2.03;;;8.80;99.90;;;;;;5059328;28;20289;-59
2023/04/12 04:58:38;;;;;;;4.23;2.23;;;8.80;99.90;;;;;;5058680;28;20688;-58
2023/04/12 05:01:06;;;;;;;4.13;2.33;;;8.90;99.90;;;;;;5058650;28;20208;-60
2023/04/12 05:03:33;;;;;;;4.43;1.87;;;8.90;99.90;;;;;;5058857;28;20214;-60
2023/04/12 05:06:01;;;;;;;5.87;2.13;;;8.90;99.90;;;;;;5058270;28;20229;-60
2023/04/12 05:08:28;;;;;;;4.10;2.00;;;9.00;99.90;;;;;;5058878;28;20210;-59
2023/04/12 05:10:57;;;;;;;4.60;2.23;;;9.10;99.90;;;;;;5058484;28;20198;-60
2023/04/12 05:13:24;;;;;;;4.93;3.20;;;9.10;99.90;;;;;;5057850;28;20213;-60
2023/04/12 05:15:51;;;;;;;5.13;3.10;;;9.20;99.90;;;;;;5058304;28;20296;-60
2023/04/12 05:18:18;;;;;;;5.07;2.27;;;9.40;99.90;;;;;;5058991;28;20213;-58
2023/04/12 05:20:47;;;;;;;3.63;1.87;;;9.50;99.90;;;;;;5058098;28;20253;-59
2023/04/12 05:23:14;;;;;;;2.83;1.67;;;9.60;99.90;;;;;;5057731;28;20300;-59
2023/04/12 05:25:45;;;;;;;5.60;3.10;;;9.70;99.90;;;;;;5058666;28;20251;-59
2023/04/12 05:28:16;;;;;;;4.53;2.23;;;9.70;99.90;;;;;;5059270;28;20202;-60
2023/04/12 05:30:43;;;;;;;4.27;2.00;;;9.70;99.90;;;;;;5059064;28;20712;-59
2023/04/12 05:33:10;;;;;;;3.63;2.10;;;9.70;99.90;;;;;;5058164;28;20239;-59
2023/04/12 05:35:37;;;;;;;4.27;2.20;;;9.60;99.90;;;;;;5058275;28;20293;-59
2023/04/12 05:38:04;;;;;;;5.90;2.20;;;9.70;99.90;;;;;;5058186;28;20289;-60
2023/04/12 05:40:31;;;;;;;5.07;2.00;;;9.70;99.90;;;;;;5058734;28;20234;-59
2023/04/12 05:42:58;;;;;;;3.07;2.00;;;9.80;99.90;;;;;;5058363;28;20233;-60
2023/04/12 05:45:27;;;;;;;3.77;2.10;;;9.80;99.90;;;;;;5058397;28;20229;-60
2023/04/12 05:47:54;;;;;;;3.73;2.00;;;9.80;99.90;;;;;;5059035;28;20300;-59
2023/04/12 05:50:21;;;;;;;4.70;2.10;;;9.80;99.90;;;;;;5058244;28;20221;-59
2023/04/12 05:52:48;;;;;;;7.13;2.20;;;9.70;99.90;;;;;;5057769;28;20681;-60
2023/04/12 05:55:16;;;;;;;2.53;2.13;;;9.60;99.90;;;;;;5058264;28;20361;-60
2023/04/12 05:57:46;;;;;;;3.03;1.93;;;9.50;99.90;;;;;;5058946;28;20212;-60
2023/04/12 06:00:16;;;;;;;4.33;2.53;;;9.40;99.90;;;;;;5058269;28;20237;-60
2023/04/12 06:02:45;;;;;;;2.93;2.30;;;9.50;99.90;;;;;;5057847;28;20650;-60
2023/04/12 06:05:12;;;;;;;5.13;2.30;;;9.60;99.90;;;;;;5058100;28;20316;-59
2023/04/12 06:07:40;;;;;;;3.13;2.13;;;9.60;99.90;;;;;;5058277;28;20205;-60
2023/04/12 06:10:08;;;;;;;3.37;2.03;;;9.40;99.90;;;;;;5057023;28;20260;-59
2023/04/12 06:12:35;;;;;;;3.73;2.03;;;9.30;99.90;;;;;;5057864;28;20214;-60
2023/04/12 06:15:02;;;;;;;4.17;1.90;;;9.20;99.90;;;;;;5057349;28;20564;-59
2023/04/12 06:17:29;;;;;;;3.00;1.80;;;9.10;99.90;;;;;;5057684;28;20209;-60
2023/04/12 06:19:57;;;;;;;3.23;2.10;;;9.20;99.90;;;;;;5058057;28;20705;-60
2023/04/12 06:22:24;;;;;;;3.00;2.00;;;9.20;99.90;;;;;;5058126;28;20213;-60
2023/04/12 06:24:52;;;;;;;3.83;1.93;;;9.40;99.90;;;;;;5058261;28;20747;-60
2023/04/12 06:27:21;;;;;;;4.37;2.20;;;9.30;99.90;;;;;;5058557;28;20218;-60
2023/04/12 06:29:48;;;;;;;3.50;2.70;;;9.40;99.90;;;;;;5057855;28;20586;-58
2023/04/12 06:32:15;;;;;;;4.67;2.40;;;9.60;99.90;;;;;;5058540;28;20692;-59
2023/04/12 06:34:42;;;;;;;3.53;2.50;;;9.60;99.90;;;;;;5059619;28;20205;-59
2023/04/12 06:37:10;;;;;;;4.00;2.33;;;9.70;99.90;;;;;;5059256;28;20201;-58
2023/04/12 06:39:37;;;;;;;2.70;2.00;;;9.70;99.90;;;;;;5059106;28;20260;-59
2023/04/12 06:42:04;;;;;;;2.53;2.10;;;9.60;99.90;;;;;;5058454;28;20631;-60
2023/04/12 06:44:32;;;;;;;5.37;2.30;;;9.70;99.90;;;;;;5058126;28;20205;-61
2023/04/12 06:46:59;;;;;;;4.10;2.30;;;9.90;99.90;;;;;;5058037;28;20211;-58
2023/04/12 06:49:26;;;;;;;4.83;2.37;;;10.00;99.90;;;;;;5058326;28;20230;-59
2023/04/12 06:51:53;;;;;;;3.30;1.97;;;10.10;99.90;;;;;;5057302;28;20221;-59
2023/04/12 06:54:22;;;;;;;2.93;2.07;;;10.10;99.90;;;;;;5057852;28;20237;-59
2023/04/12 06:56:49;;;;;;;5.77;2.07;;;10.00;99.90;;;;;;5057277;28;20209;-58
2023/04/12 06:59:16;;;;;;;3.43;2.13;;;10.10;99.90;;;;;;5056502;28;20226;-59
2023/04/12 07:01:43;;;;;;;3.47;2.07;;;10.10;99.90;;;;;;5056969;28;20224;-58
2023/04/12 07:04:11;;;;;;;3.33;1.90;;;10.30;99.90;;;;;;5057355;28;20210;-59
2023/04/12 07:06:38;;;;;;;3.43;2.20;;;10.40;99.90;;;;;;5056539;28;20723;-59
2023/04/12 07:09:05;;;;;;;2.63;2.00;;;10.30;99.90;;;;;;5057422;28;20251;-58
2023/04/12 07:11:34;;;;;;;2.53;1.60;;;10.30;99.90;;;;;;5057582;28;20201;-59
2023/04/12 07:14:01;;;;;;;13.30;11.93;;;10.30;99.90;;;;;;5058295;28;20209;-59
2023/04/12 07:16:31;;;;;;;2.67;1.70;;;10.20;99.90;;;;;;5058167;28;20217;-59
2023/04/12 07:18:58;;;;;;;2.80;1.70;;;10.10;99.90;;;;;;5057903;28;20291;-59
2023/04/12 07:21:26;;;;;;;2.13;1.77;;;10.00;99.90;;;;;;5057856;28;20565;-56
2023/04/12 07:23:53;;;;;;;2.80;1.93;;;10.10;99.90;;;;;;5055828;28;20202;-59
2023/04/12 07:26:20;;;;;;;5.33;3.50;;;10.10;99.90;;;;;;5056320;28;20632;-58
2023/04/12 07:31:16;;;;;;;2.00;1.60;;;10.40;99.90;;;;;;5081568;28;20602;-64
2023/04/12 07:33:43;;;;;;;2.67;2.00;;;10.60;99.90;;;;;;5077823;28;20201;-64
2023/04/12 07:36:10;;;;;;;2.00;1.80;;;10.70;99.90;;;;;;5072611;28;20208;-62
2023/04/12 07:38:37;;;;;;;3.37;1.60;;;10.80;99.90;;;;;;5072474;28;20212;-64
2023/04/12 07:41:04;;;;;;;2.17;1.50;;;10.90;99.90;;;;;;5053003;28;20237;-63
2023/04/12 07:43:31;;;;;;;2.73;1.60;;;11.00;99.90;;;;;;5052241;28;20239;-64
2023/04/12 07:45:57;;;;;;;2.70;1.60;;;11.00;99.90;;;;;;5052722;28;20255;-66
2023/04/12 07:48:25;;;;;;;1.70;1.50;;;11.10;99.90;;;;;;5054500;28;20232;-67
2023/04/12 07:50:52;;;;;;;3.40;1.80;;;11.10;99.90;;;;;;5054089;28;20229;-61
2023/04/12 07:53:21;;;;;;;2.70;1.63;;;11.10;99.90;;;;;;5051856;28;20681;-61
2023/04/12 07:55:48;;;;;;;1.87;1.43;;;11.20;99.90;;;;;;5052318;28;20275;-62
2023/04/12 07:58:15;;;;;;;2.53;1.43;;;11.20;99.90;;;;;;5052139;28;20205;-64
2023/04/12 08:00:42;;;;;;;2.00;1.27;;;11.20;99.90;;;;;;5051814;28;20320;-60
2023/04/12 08:03:09;;;;;;;1.30;1.13;;;11.40;99.90;;;;;;5053072;28;20205;-61
2023/04/12 08:05:37;;;;;;;2.27;1.30;;;11.50;99.90;;;;;;5054437;28;20229;-62
2023/04/12 08:08:05;;;;;;;1.20;1.10;;;11.60;99.90;;;;;;5054008;28;20217;-62
2023/04/12 08:10:32;;;;;;;1.77;1.23;;;11.60;99.90;;;;;;5054199;28;20708;-63
2023/04/12 08:12:59;;;;;;;1.93;1.30;;;11.50;99.90;;;;;;5058041;28;20219;-62
2023/04/12 08:15:25;;;;;;;1.37;1.10;;;11.40;99.90;;;;;;5060671;28;20666;-62
2023/04/12 08:17:52;;;;;;;1.83;1.37;;;11.10;99.90;;;;;;5056818;28;20201;-62
2023/04/12 08:20:19;;;;;;;1.83;1.40;;;11.00;99.90;;;;;;5056745;28;20221;-62
2023/04/12 08:22:48;;;;;;;2.33;1.30;;;10.90;99.90;;;;;;5055894;28;20205;-62
2023/04/12 08:25:15;;;;;;;3.07;1.40;;;11.00;99.90;;;;;;5055895;28;20271;-62
2023/04/12 08:27:42;;;;;;;1.73;1.50;;;11.10;99.90;;;;;;5055568;28;20213;-62
2023/04/12 08:30:11;;;;;;;3.33;2.07;;;11.40;99.90;;;;;;5066327;28;20257;-64
2023/04/12 08:32:38;;;;;;;3.90;1.50;;;11.70;99.90;;;;;;5074926;28;20208;-62
2023/04/12 08:35:05;;;;;;;3.57;1.40;;;12.10;99.90;;;;;;5075083;28;20240;-62
2023/04/12 08:37:31;;;;;;;1.60;1.27;;;12.10;99.90;;;;;;5075162;28;20232;-62
2023/04/12 08:40:04;;;;;;;2.07;1.30;;;12.10;99.90;;;;;;5074936;28;20251;-64
2023/04/12 08:42:32;;;;;;;4.33;1.50;;;12.20;99.90;;;;;;5074846;28;20303;-64
2023/04/12 08:44:58;;;;;;;4.60;1.40;;;12.30;99.90;;;;;;5075570;28;20240;-64
2023/04/12 08:47:26;;;;;;;3.27;1.43;;;12.40;99.90;;;;;;5076079;28;20606;-60
2023/04/12 08:49:52;;;;;;;2.37;1.37;;;12.30;99.90;;;;;;5077357;28;20227;-63
2023/04/12 08:52:19;;;;;;;1.33;1.13;;;12.40;99.90;;;;;;5077494;28;20201;-63
2023/04/12 08:54:46;;;;;;;2.30;1.30;;;12.40;99.90;;;;;;5075541;28;20208;-63
2023/04/12 08:57:17;;;;;;;2.90;1.43;;;12.60;99.90;;;;;;5074875;28;20208;-64
2023/04/12 08:59:46;;;;;;;2.10;1.10;;;12.80;99.90;;;;;;5074371;28;20220;-64
2023/04/12 09:02:14;;;;;;;1.63;1.10;;;13.00;99.90;;;;;;5071264;28;20674;-64
2023/04/12 09:04:48;;;;;;;3.40;1.20;;;13.20;99.90;;;;;;5073775;28;20211;-62
2023/04/12 09:07:15;;;;;;;3.93;1.57;;;13.40;99.90;;;;;;5073776;28;20321;-62
2023/04/12 09:09:43;;;;;;;1.87;1.10;;;13.60;99.90;;;;;;5073988;28;20229;-65
2023/04/12 09:12:11;;;;;;;1.53;1.17;;;13.70;99.90;;;;;;5073274;28;20236;-64
2023/04/12 09:14:42;;;;;;;2.03;0.90;;;14.00;99.90;;;;;;5073629;28;20212;-64
2023/04/12 09:17:22;;;;;;;4.13;1.17;;;14.30;99.90;;;;;;5073769;28;20226;-63
2023/04/12 09:19:49;;;;;;;1.03;0.80;;;14.50;99.90;;;;;;5073228;28;20267;-63
2023/04/12 09:22:15;;;;;;;1.43;0.77;;;14.60;99.90;;;;;;5072875;28;20278;-62
2023/04/12 09:24:52;;;;;;;2.17;1.00;;;14.60;99.90;;;;;;5072894;28;20304;-62
2023/04/12 09:27:20;;;;;;;1.63;1.10;;;14.60;99.90;;;;;;5073728;28;20676;-63
2023/04/12 09:29:51;;;;;;;4.37;1.53;;;14.50;99.90;;;;;;5073429;28;20260;-64
2023/04/12 09:32:26;;;;;;;3.30;1.03;;;14.50;99.90;;;;;;5073302;28;20209;-64
2023/04/12 09:34:56;;;;;;;3.07;1.03;;;14.40;99.90;;;;;;5073733;28;20207;-64
2023/04/12 09:37:23;;;;;;;1.33;0.90;;;14.30;99.90;;;;;;5073607;28;20664;-63
2023/04/12 09:39:59;;;;;;;2.80;1.30;;;14.40;99.90;;;;;;5072957;28;20604;-65
2023/04/12 09:42:27;;;;;;;1.80;1.10;;;14.60;99.90;;;;;;5072764;28;20254;-66
2023/04/12 09:44:58;;;;;;;1.70;1.13;;;14.80;99.90;;;;;;5072559;28;20237;-66
2023/04/12 09:47:37;;;;;;;2.60;1.20;;;14.90;99.90;;;;;;5072916;28;20314;-64
2023/04/12 09:50:06;;;;;;;1.30;0.90;;;15.00;99.90;;;;;;5073131;28;20221;-67
2023/04/12 09:52:36;;;;;;;2.73;1.23;;;15.20;99.90;;;;;;5072159;28;20207;-66
2023/04/12 09:55:08;;;;;;;4.43;1.42;;;15.30;99.90;;;;;;5072744;28;20200;-65
2023/04/12 09:57:37;;;;;;;3.77;1.40;;;15.20;99.90;;;;;;5072600;28;20209;-63
2023/04/12 10:00:11;;;;;;;2.53;1.17;;;15.30;99.90;;;;;;5072519;28;20274;-65
2023/04/12 10:02:40;;;;;;;2.27;1.00;;;15.30;99.90;;;;;;5072291;28;20208;-66
2023/04/12 10:05:07;;;;;;;4.78;2.40;;;15.30;99.90;;;;;;5072158;28;20633;-68
2023/04/12 10:07:36;;;;;;;3.03;1.57;;;15.30;99.90;;;;;;5072064;28;20229;-64
2023/04/12 10:10:05;;;;;;;2.57;1.53;;;15.30;99.90;;;;;;5072300;28;20247;-64
2023/04/12 10:12:32;;;;;;;2.50;1.13;;;15.30;99.90;;;;;;5072842;28;20237;-63
2023/04/12 10:15:03;;;;;;;4.10;1.40;;;15.40;99.90;;;;;;5072939;28;20205;-63
2023/04/12 10:17:32;;;;;;;3.40;2.60;;;15.40;99.90;;;;;;5073253;28;20653;-63
2023/04/12 10:19:59;;;;;;;2.17;1.30;;;15.40;99.90;;;;;;5073178;28;20225;-63
2023/04/12 10:22:26;;;;;;;5.50;2.10;;;15.50;99.90;;;;;;5072591;28;20213;-63
2023/04/12 10:24:54;;;;;;;4.32;2.30;;;15.60;99.90;;;;;;5072735;28;20699;-64
2023/04/12 10:27:26;;;;;;;2.67;1.15;;;15.60;99.90;;;;;;5072706;28;20233;-64
2023/04/12 10:29:53;;;;;;;1.00;0.93;;;15.60;99.90;;;;;;5072543;28;20319;-64
2023/04/12 10:32:21;;;;;;;1.67;1.23;;;15.70;99.90;;;;;;5072432;28;20680;-63
2023/04/12 10:34:53;;;;;;;3.10;1.30;;;15.70;99.90;;;;;;5071895;28;20205;-62
2023/04/12 10:37:20;;;;;;;3.10;1.48;;;15.60;99.90;;;;;;5072880;28;20201;-62
2023/04/12 10:39:52;;;;;;;3.00;1.40;;;15.60;99.90;;;;;;5072237;28;20225;-63
2023/04/12 10:42:25;;;;;;;3.23;1.70;;;15.50;99.90;;;;;;5072232;28;20215;-62
2023/04/12 10:44:54;;;;;;;2.73;1.60;;;15.50;99.90;;;;;;5072565;28;20601;-64
2023/04/12 10:48:00;;;;;;;3.45;1.70;;;15.50;99.90;;;;;;5072209;28;20563;-62
2023/04/12 10:50:30;;;;;;;5.20;1.80;;;15.50;99.90;;;;;;5072528;28;20628;-64
2023/04/12 10:53:23;;;;;;;2.55;1.70;;;15.60;99.90;;;;;;5072080;28;20307;-64
2023/04/12 10:55:50;;;;;;;4.15;2.10;;;15.70;99.90;;;;;;5072735;28;20201;-63
2023/04/12 10:58:53;;;;;;;3.60;1.70;;;15.90;99.90;;;;;;5072252;28;20205;-63
2023/04/12 11:01:20;;;;;;;4.53;1.60;;;15.90;99.90;;;;;;5070660;28;20201;-64
2023/04/12 11:04:07;;;;;;;3.05;1.60;;;16.10;99.90;;;;;;5071950;28;20212;-62
2023/04/12 11:06:49;;;;;;;5.38;1.85;;;16.30;99.90;;;;;;5072143;28;20239;-65
2023/04/12 11:09:20;;;;;;;4.32;1.35;;;16.50;99.90;;;;;;5072199;28;20228;-62
2023/04/12 11:11:47;;;;;;;3.15;1.70;;;16.70;99.90;;;;;;5071964;28;20282;-61
2023/04/12 11:14:15;;;;;;;2.70;1.30;;;16.80;99.90;;;;;;5072100;28;20308;-62
2023/04/12 11:17:20;;;;;;;4.05;2.08;;;17.10;99.90;;;;;;5071953;28;20204;-63
2023/04/12 11:19:49;;;;;;;3.15;1.70;;;17.20;99.90;;;;;;5072017;28;20281;-63
2023/04/12 11:22:20;;;;;;;2.88;1.52;;;17.40;99.90;;;;;;5072283;28;20208;-62
2023/04/12 11:24:48;;;;;;;2.42;1.50;;;17.50;99.90;;;;;;5071982;28;20205;-64
2023/04/12 11:27:16;;;;;;;2.40;1.58;;;17.60;99.90;;;;;;5072134;28;20315;-62
2023/04/12 11:29:43;;;;;;;3.38;1.50;;;17.80;99.90;;;;;;5072142;28;20327;-64
2023/04/12 11:32:11;;;;;;;3.45;1.65;;;17.80;99.90;;;;;;5071993;28;20296;-60
2023/04/12 11:34:38;;;;;;;2.05;1.38;;;17.90;99.90;;;;;;5072186;28;20213;-61
2023/04/12 11:37:07;;;;;;;4.60;2.08;;;18.00;99.90;;;;;;5071947;28;20254;-62
2023/04/12 11:39:37;;;;;;;3.60;1.38;;;18.00;99.90;;;;;;5071933;28;20275;-63
2023/04/12 11:42:07;;;;;;;2.75;1.40;;;17.90;99.90;;;;;;5071935;28;20303;-63
2023/04/12 11:44:34;;;;;;;11.48;4.38;;;17.90;99.90;;;;;;5072201;28;20246;-60
2023/04/12 11:47:01;;;;;;;4.45;1.77;;;17.70;99.90;;;;;;5074559;28;20228;-61
2023/04/12 11:49:27;;;;;;;2.30;1.33;;;17.60;99.90;;;;;;5075436;28;20647;-61
2023/04/12 11:52:01;;;;;;;1.85;1.15;;;17.60;99.90;;;;;;5075523;28;20204;-63
2023/04/12 11:54:29;;;;;;;3.45;1.20;;;17.60;99.90;;;;;;5075743;28;20208;-60
2023/04/12 11:56:58;;;;;;;2.95;1.73;;;17.60;99.90;;;;;;5075676;28;20695;-61
2023/04/12 11:59:32;;;;;;;1.92;1.20;;;17.70;99.90;;;;;;5075699;28;20316;-62
2023/04/12 12:02:01;;;;;;;1.48;0.90;;;17.70;99.90;;;;;;5075551;28;20295;-62
2023/04/12 12:04:28;;;;;;;2.38;1.05;;;17.60;99.90;;;;;;5075773;28;20664;-62
2023/04/12 12:06:56;;;;;;;3.33;1.00;;;17.90;99.90;;;;;;5075641;28;20232;-61
2023/04/12 12:09:23;;;;;;;3.20;1.45;;;17.60;99.90;;;;;;5075669;28;20233;-62
2023/04/12 12:11:50;;;;;;;2.75;1.30;;;17.80;99.90;;;;;;5075556;28;20216;-62
2023/04/12 12:14:20;;;;;;;1.77;1.00;;;18.10;99.90;;;;;;5075444;28;20561;-62
2023/04/12 12:16:53;;;;;;;4.38;1.25;;;18.30;99.90;;;;;;5075350;28;20200;-62
2023/04/12 12:19:28;;;;;;;0.95;0.70;;;18.40;99.90;;;;;;5075539;28;20282;-62
2023/04/12 12:21:54;;;;;;;1.63;1.20;;;18.50;99.90;;;;;;5075294;28;20291;-62
2023/04/12 12:24:22;;;;;;;0.98;0.80;;;18.60;99.90;;;;;;5075390;28;20205;-63
2023/04/12 12:26:50;;;;;;;2.67;0.90;;;18.80;99.90;;;;;;5075051;28;20723;-61
2023/04/12 12:29:18;;;;;;;2.30;0.85;;;18.90;99.90;;;;;;5074975;28;20676;-61
2023/04/12 12:31:47;;;;;;;1.85;0.90;;;18.90;99.90;;;;;;5075274;28;20235;-61
2023/04/12 12:34:18;;;;;;;0.93;0.60;;;18.90;99.90;;;;;;5074735;28;20247;-61
2023/04/12 12:36:54;;;;;;;1.35;0.70;;;19.10;99.90;;;;;;5075053;28;20205;-61
2023/04/12 12:39:20;;;;;;;0.95;0.68;;;19.10;99.90;;;;;;5075063;28;20228;-61
2023/04/12 12:41:53;;;;;;;1.75;0.80;;;19.20;99.90;;;;;;5074809;28;20256;-60
2023/04/12 12:44:20;;;;;;;2.40;1.27;;;19.20;99.90;;;;;;5074706;28;20677;-61
2023/04/12 12:46:48;;;;;;;3.10;1.17;;;19.10;99.90;;;;;;5074957;28;20704;-61
2023/04/12 12:49:15;;;;;;;2.65;1.10;;;18.80;99.90;;;;;;5074997;28;20225;-61
2023/04/12 12:51:41;;;;;;;2.35;0.60;;;18.40;99.90;;;;;;5074738;28;20201;-60
2023/04/12 12:54:08;;;;;;;2.20;0.88;;;18.20;99.90;;;;;;5074632;28;20216;-62
2023/04/12 12:56:35;;;;;;;3.03;1.00;;;18.00;99.90;;;;;;5074760;28;20625;-62
2023/04/12 12:59:02;;;;;;;1.10;0.60;;;18.00;99.90;;;;;;5073782;28;20668;-62